createdAt,value
2023-03-04T00:00:53.177Z,5.32
2023-03-04T00:03:33.763Z,5.60
2023-03-04T00:06:00.930Z,5.68
2023-03-04T00:08:29.023Z,5.22
2023-03-04T00:11:17.209Z,5.61
2023-03-04T00:14:18.194Z,5.80
2023-03-04T00:17:19.217Z,5.61
2023-03-04T00:20:21.201Z,5.77
2023-03-04T00:23:22.209Z,5.42
2023-03-04T00:26:26.730Z,5.39
2023-03-04T00:29:17.195Z,5.59
2023-03-04T00:31:57.915Z,5.71
2023-03-04T00:34:24.838Z,5.47
2023-03-04T00:36:51.913Z,4.62
2023-03-04T00:39:18.736Z,4.39
2023-03-04T00:41:45.970Z,5.50
2023-03-04T00:44:12.803Z,5.51
2023-03-04T00:46:39.746Z,5.53
2023-03-04T00:49:06.809Z,5.19
2023-03-04T00:51:34.051Z,5.14
2023-03-04T00:54:01.145Z,4.66
2023-03-04T00:56:28.214Z,4.87
2023-03-04T00:58:55.476Z,4.78
2023-03-04T01:01:22.358Z,4.05
2023-03-04T01:03:49.418Z,4.88
2023-03-04T01:06:16.810Z,4.58
2023-03-04T01:08:44.819Z,4.59
2023-03-04T01:11:32.197Z,4.72
2023-03-04T01:14:26.330Z,4.27
2023-03-04T01:17:06.814Z,4.26
2023-03-04T01:19:33.906Z,4.29
2023-03-04T01:22:22.166Z,3.92
2023-03-04T01:25:23.220Z,4.70
2023-03-04T01:28:24.230Z,4.45
2023-03-04T01:31:25.213Z,4.71
2023-03-04T01:34:05.870Z,4.36
2023-03-04T01:36:32.693Z,3.86
2023-03-04T01:38:59.674Z,4.73
2023-03-04T01:41:27.129Z,4.75
2023-03-04T01:43:57.707Z,4.73
2023-03-04T01:46:24.943Z,4.26
2023-03-04T01:48:51.920Z,3.78
2023-03-04T01:51:21.020Z,4.30
2023-03-04T01:53:55.013Z,3.58
2023-03-04T01:56:23.593Z,3.34
2023-03-04T01:59:11.180Z,4.56
2023-03-04T02:01:39.534Z,4.24
2023-03-04T02:04:08.016Z,3.69
2023-03-04T02:06:37.449Z,4.32
2023-03-04T02:09:25.245Z,4.04
2023-03-04T02:12:20.124Z,4.06
2023-03-04T02:15:07.261Z,4.29
2023-03-04T02:17:48.105Z,4.02
2023-03-04T02:20:52.257Z,4.29
2023-03-04T02:24:09.240Z,4.18
2023-03-04T02:27:10.266Z,4.14
2023-03-04T02:30:11.241Z,4.14
2023-03-04T02:33:12.270Z,4.23
2023-03-04T02:35:46.918Z,3.22
2023-03-04T02:38:14.147Z,4.08
2023-03-04T02:40:46.192Z,4.06
2023-03-04T02:43:14.870Z,3.87
2023-03-04T02:45:44.162Z,4.30
2023-03-04T02:48:12.938Z,4.03
2023-03-04T02:50:47.168Z,4.21
2023-03-04T02:53:15.418Z,4.00
2023-03-04T02:55:43.710Z,3.96
2023-03-04T02:58:12.171Z,2.98
2023-03-04T03:00:39.738Z,3.78
2023-03-04T03:03:07.737Z,4.06
2023-03-04T03:05:37.427Z,4.15
2023-03-04T03:08:05.243Z,3.91
2023-03-04T03:10:52.287Z,3.98
2023-03-04T03:13:54.265Z,3.71
2023-03-04T03:16:35.245Z,3.54
2023-03-04T03:19:02.655Z,4.34
2023-03-04T03:21:50.289Z,4.04
2023-03-04T03:24:30.808Z,4.10
2023-03-04T03:27:18.260Z,3.90
2023-03-04T03:30:06.307Z,3.62
2023-03-04T03:32:36.112Z,3.59
2023-03-04T03:35:04.031Z,3.81
2023-03-04T03:37:30.962Z,3.63
2023-03-04T03:39:58.005Z,3.38
2023-03-04T03:42:24.953Z,3.59
2023-03-04T03:44:51.892Z,2.83
2023-03-04T03:47:18.813Z,3.53
2023-03-04T03:49:45.767Z,3.61
2023-03-04T03:52:13.002Z,3.42
2023-03-04T03:54:40.109Z,3.45
2023-03-04T03:57:06.995Z,3.58
2023-03-04T03:59:33.988Z,2.78
2023-03-04T04:02:01.039Z,3.25
2023-03-04T04:04:27.976Z,2.92
2023-03-04T04:06:54.949Z,3.16
2023-03-04T04:09:42.304Z,2.88
2023-03-04T04:12:43.399Z,2.95
2023-03-04T04:15:45.315Z,3.27
2023-03-04T04:18:30.694Z,2.99
2023-03-04T04:21:18.348Z,3.07
2023-03-04T04:23:58.841Z,2.94
2023-03-04T04:26:25.825Z,3.16
2023-03-04T04:29:13.318Z,3.27
2023-03-04T04:31:53.869Z,3.12
2023-03-04T04:34:20.811Z,3.16
2023-03-04T04:36:49.332Z,2.92
2023-03-04T04:39:16.299Z,2.53
2023-03-04T04:41:44.675Z,2.76
2023-03-04T04:44:12.954Z,2.11
2023-03-04T04:46:40.517Z,2.99
2023-03-04T04:49:07.870Z,2.69
2023-03-04T04:51:36.371Z,2.89
2023-03-04T04:54:03.928Z,2.89
2023-03-04T04:56:31.035Z,2.80
2023-03-04T04:59:00.271Z,3.00
2023-03-04T05:01:27.765Z,3.02
2023-03-04T05:03:55.490Z,2.55
2023-03-04T05:06:24.225Z,3.02
2023-03-04T05:09:11.343Z,3.03
2023-03-04T05:11:55.906Z,2.51
2023-03-04T05:14:36.432Z,2.79
2023-03-04T05:17:30.338Z,2.47
2023-03-04T05:20:31.324Z,2.45
2023-03-04T05:23:27.689Z,2.63
2023-03-04T05:25:54.765Z,2.82
2023-03-04T05:28:41.346Z,2.84
2023-03-04T05:31:21.978Z,2.48
2023-03-04T05:33:48.940Z,2.69
2023-03-04T05:36:15.887Z,2.30
2023-03-04T05:38:44.038Z,2.58
2023-03-04T05:41:10.969Z,2.53
2023-03-04T05:43:42.691Z,2.06
2023-03-04T05:46:14.217Z,2.61
2023-03-04T05:48:41.269Z,2.55
2023-03-04T05:51:08.303Z,2.46
2023-03-04T05:53:37.017Z,2.49
2023-03-04T05:56:09.299Z,2.61
2023-03-04T05:58:36.296Z,2.95
2023-03-04T06:01:04.178Z,2.24
2023-03-04T06:03:31.124Z,1.84
2023-03-04T06:05:58.678Z,2.42
2023-03-04T06:08:33.388Z,2.72
2023-03-04T06:11:36.323Z,2.34
2023-03-04T06:14:32.421Z,2.53
2023-03-04T06:17:33.414Z,2.53
2023-03-04T06:20:34.404Z,2.40
2023-03-04T06:23:26.161Z,2.52
2023-03-04T06:25:54.538Z,2.86
2023-03-04T06:28:43.493Z,2.45
2023-03-04T06:31:23.992Z,3.16
2023-03-04T06:33:51.114Z,3.45
2023-03-04T06:36:18.100Z,3.30
2023-03-04T06:38:45.199Z,3.54
2023-03-04T06:41:32.439Z,3.11
2023-03-04T06:44:33.384Z,3.46
2023-03-04T06:47:14.003Z,4.06
2023-03-04T06:49:40.832Z,3.49
2023-03-04T06:52:11.248Z,4.20
2023-03-04T06:54:38.437Z,3.99
2023-03-04T06:57:05.888Z,5.58
2023-03-04T06:59:32.940Z,5.35
2023-03-04T07:01:59.828Z,5.56
2023-03-04T07:04:26.923Z,5.81
2023-03-04T07:06:53.795Z,6.42
2023-03-04T07:09:20.696Z,5.95
2023-03-04T07:12:07.472Z,4.81
2023-03-04T07:15:08.409Z,6.09
2023-03-04T07:17:49.024Z,6.34
2023-03-04T07:20:36.413Z,6.61
2023-03-04T07:23:37.418Z,6.29
2023-03-04T07:26:38.430Z,6.76
2023-03-04T07:29:06.177Z,6.85
2023-03-04T07:31:40.992Z,7.11
2023-03-04T07:34:19.362Z,6.61
2023-03-04T07:37:01.277Z,6.88
2023-03-04T07:39:48.457Z,5.94
2023-03-04T07:42:28.987Z,6.85
2023-03-04T07:45:05.535Z,7.31
2023-03-04T07:47:32.450Z,7.13
2023-03-04T07:49:59.352Z,7.11
2023-03-04T07:52:26.260Z,6.04
2023-03-04T07:54:53.146Z,7.68
2023-03-04T07:57:20.135Z,5.99
2023-03-04T07:59:47.121Z,5.90
2023-03-04T08:02:15.636Z,6.29
2023-03-04T08:04:42.588Z,6.93
2023-03-04T08:07:09.506Z,6.47
2023-03-04T08:09:36.322Z,6.34
2023-03-04T08:12:23.605Z,5.13
2023-03-04T08:15:24.419Z,5.93
2023-03-04T08:18:04.964Z,6.22
2023-03-04T08:20:55.447Z,6.22
2023-03-04T08:23:56.458Z,6.19
2023-03-04T08:26:41.994Z,6.65
2023-03-04T08:29:32.461Z,7.39
2023-03-04T08:32:33.549Z,7.14
2023-03-04T08:35:13.996Z,7.19
2023-03-04T08:37:40.890Z,7.14
2023-03-04T08:40:28.437Z,7.05
2023-03-04T08:43:09.072Z,7.22
2023-03-04T08:45:36.255Z,6.65
2023-03-04T08:48:03.276Z,7.49
2023-03-04T08:50:30.146Z,7.17
2023-03-04T08:52:59.313Z,7.72
2023-03-04T08:55:26.202Z,8.04
2023-03-04T08:57:53.464Z,7.71
2023-03-04T09:00:22.285Z,8.01
2023-03-04T09:02:49.594Z,8.16
2023-03-04T09:05:16.522Z,7.96
2023-03-04T09:08:02.700Z,8.15
2023-03-04T09:10:44.522Z,7.94
2023-03-04T09:13:32.134Z,8.73
2023-03-04T09:16:23.809Z,8.78
2023-03-04T09:18:52.131Z,8.56
2023-03-04T09:21:39.496Z,9.75
2023-03-04T09:24:20.108Z,9.52
2023-03-04T09:26:51.407Z,10.33
2023-03-04T09:29:18.537Z,9.27
2023-03-04T09:31:45.530Z,8.90
2023-03-04T09:34:12.522Z,8.66
2023-03-04T09:36:40.039Z,9.43
2023-03-04T09:39:27.485Z,9.69
2023-03-04T09:42:39.521Z,9.52
2023-03-04T09:45:38.553Z,10.28
2023-03-04T09:48:07.155Z,10.58
2023-03-04T09:50:40.492Z,11.49
2023-03-04T09:53:17.466Z,11.91
2023-03-04T09:55:49.277Z,11.53
2023-03-04T09:58:28.503Z,12.44
2023-03-04T10:01:05.515Z,12.39
2023-03-04T10:03:58.595Z,13.29
2023-03-04T10:06:45.481Z,13.12
2023-03-04T10:09:51.706Z,13.09
2023-03-04T10:12:25.753Z,13.11
2023-03-04T10:15:20.505Z,13.57
2023-03-04T10:18:24.082Z,13.86
2023-03-04T10:21:36.521Z,13.98
2023-03-04T10:24:41.509Z,14.13
2023-03-04T10:27:23.852Z,14.26
2023-03-04T10:29:51.752Z,14.19
2023-03-04T10:32:20.534Z,14.22
2023-03-04T10:34:47.846Z,14.46
2023-03-04T10:37:15.054Z,13.67
2023-03-04T10:40:03.620Z,14.90
2023-03-04T10:42:44.097Z,14.84
2023-03-04T10:45:27.918Z,14.36
2023-03-04T10:47:56.442Z,14.80
2023-03-04T10:50:28.397Z,14.60
2023-03-04T10:52:56.349Z,14.09
2023-03-04T10:55:29.226Z,14.53
2023-03-04T10:58:04.804Z,15.00
2023-03-04T11:00:34.797Z,14.33
2023-03-04T11:03:40.541Z,15.06
2023-03-04T11:06:42.524Z,15.27
2023-03-04T11:09:32.217Z,14.80
2023-03-04T11:12:00.665Z,15.39
2023-03-04T11:14:55.527Z,14.90
2023-03-04T11:17:47.180Z,15.41
2023-03-04T11:20:46.525Z,15.11
2023-03-04T11:23:53.636Z,15.34
2023-03-04T11:26:26.498Z,14.90
2023-03-04T11:29:22.776Z,14.97
2023-03-04T11:31:55.754Z,14.38
2023-03-04T11:34:32.050Z,14.53
2023-03-04T11:37:08.749Z,12.30
2023-03-04T11:40:05.577Z,13.57
2023-03-04T11:43:09.535Z,14.42
2023-03-04T11:46:05.654Z,14.38
2023-03-04T11:48:41.705Z,14.78
2023-03-04T11:51:28.469Z,14.09
2023-03-04T11:54:01.915Z,14.94
2023-03-04T11:56:38.065Z,14.86
2023-03-04T11:59:20.352Z,15.30
2023-03-04T12:02:04.371Z,15.29
2023-03-04T12:04:46.462Z,15.47
2023-03-04T12:07:22.684Z,15.45
2023-03-04T12:09:58.580Z,15.29
2023-03-04T12:13:37.593Z,15.32
2023-03-04T12:16:47.569Z,14.61
2023-03-04T12:19:55.969Z,14.59
2023-03-04T12:23:00.624Z,14.87
2023-03-04T12:25:56.124Z,14.42
2023-03-04T12:28:38.110Z,14.27
2023-03-04T12:31:11.059Z,14.33
2023-03-04T12:34:14.416Z,14.46
2023-03-04T12:37:02.100Z,14.03
2023-03-04T12:40:17.185Z,14.27
2023-03-04T12:43:15.932Z,14.21
2023-03-04T12:45:48.884Z,14.31
2023-03-04T12:48:28.051Z,14.51
2023-03-04T12:50:55.048Z,14.56
2023-03-04T12:53:48.274Z,13.79
2023-03-04T12:56:32.972Z,14.17
2023-03-04T12:59:00.805Z,13.77
2023-03-04T13:02:04.427Z,14.44
2023-03-04T13:05:20.615Z,14.25
2023-03-04T13:08:11.145Z,14.07
2023-03-04T13:10:38.190Z,14.05
2023-03-04T13:13:49.623Z,13.82
2023-03-04T13:16:55.869Z,13.62
2023-03-04T13:19:55.993Z,13.98
2023-03-04T13:22:54.612Z,14.23
2023-03-04T13:25:47.478Z,13.66
2023-03-04T13:28:29.847Z,13.87
2023-03-04T13:31:19.648Z,14.01
2023-03-04T13:34:02.192Z,14.04
2023-03-04T13:36:35.254Z,14.02
2023-03-04T13:39:28.636Z,14.15
2023-03-04T13:42:52.645Z,13.98
2023-03-04T13:45:38.900Z,13.69
2023-03-04T13:48:33.499Z,13.46
2023-03-04T13:51:00.509Z,13.85
2023-03-04T13:53:42.962Z,13.52
2023-03-04T13:56:28.724Z,13.89
2023-03-04T13:59:05.527Z,13.45
2023-03-04T14:01:39.357Z,13.76
2023-03-04T14:04:33.684Z,13.79
2023-03-04T14:07:03.815Z,13.70
2023-03-04T14:09:33.078Z,13.67
2023-03-04T14:12:03.993Z,13.19
2023-03-04T14:14:57.661Z,13.57
2023-03-04T14:18:02.658Z,13.86
2023-03-04T14:21:05.701Z,13.50
2023-03-04T14:24:20.662Z,13.73
2023-03-04T14:27:11.948Z,13.29
2023-03-04T14:29:38.939Z,13.58
2023-03-04T14:32:06.954Z,13.62
2023-03-04T14:34:37.371Z,13.67
2023-03-04T14:37:21.739Z,13.80
2023-03-04T14:40:11.667Z,13.66
2023-03-04T14:42:58.134Z,13.67
2023-03-04T14:45:25.901Z,13.27
2023-03-04T14:48:19.674Z,13.72
2023-03-04T14:51:02.843Z,13.61
2023-03-04T14:53:33.676Z,13.56
2023-03-04T14:56:00.767Z,13.49
2023-03-04T14:58:53.702Z,13.45
2023-03-04T15:01:36.169Z,13.49
2023-03-04T15:04:11.565Z,13.44
2023-03-04T15:07:01.451Z,13.38
2023-03-04T15:09:48.686Z,13.17
2023-03-04T15:12:32.670Z,13.31
2023-03-04T15:15:47.726Z,12.97
2023-03-04T15:18:30.221Z,13.16
2023-03-04T15:21:50.710Z,13.27
2023-03-04T15:24:44.765Z,13.10
2023-03-04T15:27:27.216Z,13.38
2023-03-04T15:30:14.707Z,13.02
2023-03-04T15:33:15.746Z,13.16
2023-03-04T15:36:01.788Z,12.94
2023-03-04T15:38:48.709Z,12.97
2023-03-04T15:41:29.354Z,12.84
2023-03-04T15:43:56.370Z,12.59
2023-03-04T15:46:23.836Z,12.90
2023-03-04T15:48:52.573Z,12.54
2023-03-04T15:51:22.827Z,11.76
2023-03-04T15:53:52.627Z,11.71
2023-03-04T15:56:24.310Z,12.32
2023-03-04T15:58:57.354Z,12.60
2023-03-04T16:01:24.845Z,12.60
2023-03-04T16:04:11.728Z,12.43
2023-03-04T16:06:52.616Z,12.42
2023-03-04T16:09:21.296Z,11.91
2023-03-04T16:11:48.580Z,12.02
2023-03-04T16:14:35.731Z,12.42
2023-03-04T16:17:36.714Z,12.36
2023-03-04T16:20:41.744Z,12.00
2023-03-04T16:23:25.375Z,12.07
2023-03-04T16:25:56.691Z,11.98
2023-03-04T16:28:43.777Z,11.93
2023-03-04T16:31:44.784Z,11.59
2023-03-04T16:34:25.241Z,11.66
2023-03-04T16:37:25.745Z,11.70
2023-03-04T16:40:28.768Z,11.54
2023-03-04T16:43:12.656Z,11.44
2023-03-04T16:45:59.777Z,11.27
2023-03-04T16:48:40.706Z,11.44
2023-03-04T16:51:17.301Z,10.99
2023-03-04T16:53:49.215Z,10.41
2023-03-04T16:56:18.520Z,11.30
2023-03-04T16:59:06.750Z,11.25
2023-03-04T17:02:08.788Z,10.90
2023-03-04T17:05:04.048Z,10.82
2023-03-04T17:07:57.770Z,10.77
2023-03-04T17:10:30.365Z,10.67
2023-03-04T17:12:57.171Z,10.48
2023-03-04T17:15:43.782Z,10.50
2023-03-04T17:18:24.285Z,10.23
2023-03-04T17:21:20.769Z,10.35
2023-03-04T17:24:21.780Z,10.01
2023-03-04T17:27:02.339Z,9.98
2023-03-04T17:29:49.786Z,9.79
2023-03-04T17:32:32.725Z,9.52
2023-03-04T17:35:00.142Z,9.65
2023-03-04T17:37:46.813Z,9.47
2023-03-04T17:40:47.794Z,9.43
2023-03-04T17:43:28.304Z,8.86
2023-03-04T17:46:20.894Z,8.43
2023-03-04T17:49:01.495Z,8.98
2023-03-04T17:51:43.801Z,9.23
2023-03-04T17:54:44.778Z,9.19
2023-03-04T17:57:25.450Z,9.03
2023-03-04T17:59:52.291Z,8.53
2023-03-04T18:02:19.320Z,8.22
2023-03-04T18:04:48.358Z,8.53
2023-03-04T18:07:15.401Z,8.74
2023-03-04T18:09:43.240Z,7.97
2023-03-04T18:12:10.759Z,8.38
2023-03-04T18:14:37.703Z,8.29
2023-03-04T18:17:04.782Z,7.77
2023-03-04T18:19:31.950Z,8.56
2023-03-04T18:22:18.896Z,8.49
2023-03-04T18:25:19.823Z,8.34
2023-03-04T18:28:00.367Z,7.90
2023-03-04T18:30:27.650Z,7.34
2023-03-04T18:32:56.857Z,8.30
2023-03-04T18:35:23.781Z,7.20
2023-03-04T18:38:10.835Z,8.10
2023-03-04T18:41:17.781Z,8.01
2023-03-04T18:44:18.802Z,7.89
2023-03-04T18:46:53.452Z,8.05
2023-03-04T18:49:21.032Z,7.22
2023-03-04T18:51:47.973Z,7.38
2023-03-04T18:54:34.818Z,7.67
2023-03-04T18:57:16.943Z,7.80
2023-03-04T19:00:09.803Z,7.35
2023-03-04T19:02:53.764Z,6.43
2023-03-04T19:05:28.095Z,7.46
2023-03-04T19:07:55.569Z,7.59
2023-03-04T19:10:23.686Z,7.12
2023-03-04T19:13:10.776Z,6.94
2023-03-04T19:15:53.161Z,7.25
2023-03-04T19:18:20.594Z,7.52
2023-03-04T19:21:07.873Z,7.13
2023-03-04T19:24:08.857Z,7.29
2023-03-04T19:27:09.868Z,6.97
2023-03-04T19:29:51.065Z,6.98
2023-03-04T19:32:19.191Z,7.07
2023-03-04T19:34:47.067Z,6.29
2023-03-04T19:37:15.124Z,7.55
2023-03-04T19:40:02.873Z,7.32
2023-03-04T19:42:43.420Z,7.33
2023-03-04T19:45:10.508Z,6.95
2023-03-04T19:47:38.461Z,7.00
2023-03-04T19:50:08.043Z,6.88
2023-03-04T19:52:54.831Z,6.74
2023-03-04T19:55:55.883Z,6.27
2023-03-04T19:58:36.730Z,6.91
2023-03-04T20:01:04.026Z,6.89
2023-03-04T20:03:31.090Z,6.97
2023-03-04T20:06:08.411Z,7.16
2023-03-04T20:08:38.349Z,6.68
2023-03-04T20:11:12.783Z,6.68
2023-03-04T20:14:00.870Z,6.52
2023-03-04T20:16:41.738Z,6.74
2023-03-04T20:19:08.570Z,6.87
2023-03-04T20:21:55.859Z,6.56
2023-03-04T20:24:56.852Z,6.82
2023-03-04T20:27:37.441Z,6.68
2023-03-04T20:30:04.845Z,6.66
2023-03-04T20:32:31.846Z,5.45
2023-03-04T20:35:22.099Z,6.12
2023-03-04T20:38:22.862Z,6.05
2023-03-04T20:41:03.618Z,6.05
2023-03-04T20:43:31.257Z,5.79
2023-03-04T20:46:34.887Z,6.19
2023-03-04T20:49:05.719Z,6.13
2023-03-04T20:51:33.295Z,5.30
2023-03-04T20:54:00.827Z,5.93
2023-03-04T20:56:28.450Z,5.44
2023-03-04T20:58:57.301Z,5.08
2023-03-04T21:01:24.973Z,6.24
2023-03-04T21:03:52.279Z,6.02
2023-03-04T21:06:19.587Z,5.92
2023-03-04T21:08:46.641Z,5.35
2023-03-04T21:11:15.214Z,5.99
2023-03-04T21:14:03.889Z,5.89
2023-03-04T21:17:07.891Z,6.10
2023-03-04T21:19:48.406Z,5.78
2023-03-04T21:22:35.897Z,5.36
2023-03-04T21:25:18.312Z,5.45
2023-03-04T21:27:45.319Z,4.84
2023-03-04T21:30:12.533Z,5.71
2023-03-04T21:32:39.720Z,5.90
2023-03-04T21:35:27.962Z,5.63
2023-03-04T21:38:08.512Z,5.56
2023-03-04T21:40:35.483Z,5.37
2023-03-04T21:43:02.464Z,5.47
2023-03-04T21:45:29.492Z,5.30
2023-03-04T21:47:56.359Z,5.28
2023-03-04T21:50:23.195Z,5.29
2023-03-04T21:53:09.943Z,5.25
2023-03-04T21:55:53.153Z,5.44
2023-03-04T21:58:20.774Z,5.49
2023-03-04T22:00:49.758Z,5.22
2023-03-04T22:03:20.772Z,5.55
2023-03-04T22:06:08.053Z,5.73
2023-03-04T22:09:10.026Z,5.44
2023-03-04T22:12:10.958Z,5.47
2023-03-04T22:14:55.649Z,5.54
2023-03-04T22:17:22.788Z,5.46
2023-03-04T22:19:49.710Z,5.30
2023-03-04T22:22:30.027Z,5.29
2023-03-04T22:25:30.964Z,4.67
2023-03-04T22:28:35.158Z,5.42
2023-03-04T22:31:19.231Z,5.50
2023-03-04T22:33:46.420Z,4.80
2023-03-04T22:36:14.099Z,5.13
2023-03-04T22:38:41.331Z,5.37
2023-03-04T22:41:17.230Z,5.60
2023-03-04T22:43:44.944Z,5.03
2023-03-04T22:46:27.145Z,5.41
2023-03-04T22:48:57.533Z,5.38
2023-03-04T22:51:25.160Z,5.45
2023-03-04T22:53:52.691Z,5.47
2023-03-04T22:56:23.139Z,5.43
2023-03-04T22:58:50.729Z,5.63
2023-03-04T23:01:19.030Z,5.68
2023-03-04T23:03:47.628Z,5.58
2023-03-04T23:06:17.697Z,5.41
2023-03-04T23:08:58.979Z,5.36
2023-03-04T23:12:00.010Z,5.15
2023-03-04T23:14:51.819Z,5.16
2023-03-04T23:17:18.667Z,4.91
2023-03-04T23:19:46.082Z,4.67
2023-03-04T23:22:33.003Z,4.81
2023-03-04T23:25:14.634Z,4.97
2023-03-04T23:27:42.550Z,5.21
2023-03-04T23:30:15.053Z,5.35
2023-03-04T23:32:42.761Z,5.34
2023-03-04T23:35:10.084Z,5.30
2023-03-04T23:37:37.081Z,5.30
2023-03-04T23:40:04.802Z,5.13
2023-03-04T23:42:31.802Z,5.24
2023-03-04T23:44:58.914Z,5.19
2023-03-04T23:47:26.217Z,4.68
2023-03-04T23:49:53.216Z,5.48
2023-03-04T23:52:20.162Z,5.28
2023-03-04T23:54:47.104Z,4.99
2023-03-04T23:57:13.956Z,4.73
2023-03-04T23:59:40.897Z,4.64
